createdAt,value
2017-11-10T00:01:12.712Z,4.70
2017-11-10T00:03:40.243Z,4.70
2017-11-10T00:06:08.772Z,4.60
2017-11-10T00:08:36.312Z,4.60
2017-11-10T00:11:03.881Z,4.50
2017-11-10T00:13:31.417Z,4.40
2017-11-10T00:15:58.991Z,4.30
2017-11-10T00:18:26.521Z,4.30
2017-11-10T00:20:54.856Z,4.30
2017-11-10T00:23:22.384Z,4.30
2017-11-10T00:25:49.945Z,4.20
2017-11-10T00:28:17.490Z,4.20
2017-11-10T00:30:45.051Z,4.10
2017-11-10T00:33:12.588Z,4.10
2017-11-10T00:35:40.929Z,4.00
2017-11-10T00:38:08.469Z,4.00
2017-11-10T00:40:36.033Z,4.00
2017-11-10T00:43:03.564Z,4.00
2017-11-10T00:45:31.887Z,3.80
2017-11-10T00:47:59.429Z,3.80
2017-11-10T00:50:26.985Z,3.90
2017-11-10T00:52:54.522Z,3.90
2017-11-10T00:55:22.079Z,3.90
2017-11-10T00:57:50.377Z,4.00
2017-11-10T01:00:17.929Z,3.90
2017-11-10T01:02:45.468Z,3.80
2017-11-10T01:05:13.787Z,3.70
2017-11-10T01:07:41.324Z,3.70
2017-11-10T01:10:08.880Z,3.70
2017-11-10T01:12:36.487Z,3.60
2017-11-10T01:15:04.048Z,3.60
2017-11-10T01:17:31.576Z,3.60
2017-11-10T01:19:59.137Z,3.70
2017-11-10T01:22:26.678Z,3.70
2017-11-10T01:24:54.265Z,3.70
2017-11-10T01:27:21.804Z,3.60
2017-11-10T01:29:49.343Z,3.60
2017-11-10T01:32:17.668Z,3.60
2017-11-10T01:34:45.200Z,3.60
2017-11-10T01:37:12.764Z,3.60
2017-11-10T01:39:40.295Z,3.60
2017-11-10T01:42:08.672Z,3.70
2017-11-10T01:44:36.980Z,3.80
2017-11-10T01:47:04.539Z,3.70
2017-11-10T01:49:32.077Z,3.80
2017-11-10T01:52:00.402Z,3.90
2017-11-10T01:54:27.983Z,3.90
2017-11-10T01:56:55.543Z,3.90
2017-11-10T01:59:23.089Z,3.90
2017-11-10T02:01:50.649Z,4.00
2017-11-10T02:04:18.194Z,3.90
2017-11-10T02:06:45.753Z,3.90
2017-11-10T02:09:13.283Z,3.90
2017-11-10T02:11:40.859Z,3.90
2017-11-10T02:14:08.396Z,3.90
2017-11-10T02:16:36.715Z,3.90
2017-11-10T02:19:04.248Z,3.90
2017-11-10T02:21:31.808Z,3.90
2017-11-10T02:23:59.339Z,4.00
2017-11-10T02:26:27.667Z,4.00
2017-11-10T02:28:55.191Z,4.00
2017-11-10T02:31:23.520Z,4.00
2017-11-10T02:33:51.048Z,3.90
2017-11-10T02:36:18.608Z,3.90
2017-11-10T02:38:48.029Z,3.90
2017-11-10T02:41:15.603Z,4.00
2017-11-10T02:43:43.127Z,4.00
2017-11-10T02:46:10.684Z,4.00
2017-11-10T02:48:38.220Z,4.00
2017-11-10T02:51:06.544Z,4.00
2017-11-10T02:53:34.086Z,4.00
2017-11-10T02:56:01.648Z,4.10
2017-11-10T02:58:29.185Z,4.10
2017-11-10T03:00:56.757Z,4.10
2017-11-10T03:03:24.295Z,4.20
2017-11-10T03:05:52.628Z,4.10
2017-11-10T03:08:20.169Z,4.10
2017-11-10T03:10:47.727Z,4.10
2017-11-10T03:13:15.272Z,4.10
2017-11-10T03:15:42.835Z,4.10
2017-11-10T03:18:10.372Z,4.20
2017-11-10T03:20:38.705Z,4.10
2017-11-10T03:23:06.244Z,4.10
2017-11-10T03:25:33.800Z,4.20
2017-11-10T03:28:01.336Z,4.20
2017-11-10T03:30:29.657Z,4.20
2017-11-10T03:32:57.193Z,4.20
2017-11-10T03:35:24.729Z,4.20
2017-11-10T03:37:53.048Z,4.20
2017-11-10T03:40:20.591Z,4.20
2017-11-10T03:42:48.149Z,4.20
2017-11-10T03:45:15.685Z,4.10
2017-11-10T03:47:44.015Z,4.10
2017-11-10T03:50:11.553Z,4.10
2017-11-10T03:52:39.202Z,4.10
2017-11-10T03:55:06.740Z,4.10
2017-11-10T03:57:35.068Z,4.10
2017-11-10T04:00:02.600Z,4.10
2017-11-10T04:02:30.161Z,4.10
2017-11-10T04:04:57.702Z,4.10
2017-11-10T04:07:26.026Z,4.10
2017-11-10T04:09:53.573Z,4.00
2017-11-10T04:12:21.138Z,4.10
2017-11-10T04:14:48.680Z,4.10
2017-11-10T04:17:16.240Z,4.10
2017-11-10T04:19:43.767Z,4.10
2017-11-10T04:22:12.097Z,4.10
2017-11-10T04:24:39.640Z,4.10
2017-11-10T04:27:07.199Z,4.10
2017-11-10T04:29:34.733Z,4.10
2017-11-10T04:32:02.312Z,4.10
2017-11-10T04:34:29.843Z,4.10
2017-11-10T04:36:57.403Z,4.10
2017-11-10T04:39:25.711Z,4.10
2017-11-10T04:41:53.273Z,4.10
2017-11-10T04:44:20.816Z,4.10
2017-11-10T04:46:49.139Z,4.10
2017-11-10T04:49:16.739Z,4.10
2017-11-10T04:51:45.061Z,4.10
2017-11-10T04:54:12.876Z,4.10
2017-11-10T04:56:40.475Z,4.10
2017-11-10T04:59:08.015Z,4.10
2017-11-10T05:01:36.342Z,4.20
2017-11-10T05:04:03.888Z,4.10
2017-11-10T05:06:31.453Z,4.20
2017-11-10T05:08:59.756Z,4.20
2017-11-10T05:11:27.334Z,4.20
2017-11-10T05:13:55.649Z,4.10
2017-11-10T05:16:23.203Z,4.10
2017-11-10T05:18:50.759Z,4.10
2017-11-10T05:21:18.332Z,4.10
2017-11-10T05:23:45.863Z,4.10
2017-11-10T05:26:14.200Z,4.00
2017-11-10T05:28:41.724Z,4.00
2017-11-10T05:31:09.277Z,4.10
2017-11-10T05:33:36.807Z,4.10
2017-11-10T05:36:04.339Z,4.10
2017-11-10T05:38:31.891Z,4.10
2017-11-10T05:40:59.419Z,4.10
2017-11-10T05:43:26.976Z,4.10
2017-11-10T05:45:54.753Z,4.10
2017-11-10T05:48:22.319Z,4.10
2017-11-10T05:50:49.848Z,4.10
2017-11-10T05:53:18.176Z,4.10
2017-11-10T05:55:45.714Z,4.10
2017-11-10T05:58:13.269Z,4.10
2017-11-10T06:00:40.806Z,4.10
2017-11-10T06:03:09.133Z,4.10
2017-11-10T06:05:36.681Z,4.10
2017-11-10T06:08:04.236Z,4.20
2017-11-10T06:10:31.778Z,4.20
2017-11-10T06:12:59.348Z,4.10
2017-11-10T06:15:26.896Z,4.20
2017-11-10T06:17:54.450Z,4.20
2017-11-10T06:20:21.992Z,4.20
2017-11-10T06:22:50.315Z,4.30
2017-11-10T06:25:17.847Z,4.20
2017-11-10T06:27:45.408Z,4.30
2017-11-10T06:30:12.944Z,4.30
2017-11-10T06:32:41.273Z,4.30
2017-11-10T06:35:08.800Z,4.30
2017-11-10T06:37:36.361Z,4.30
2017-11-10T06:40:03.898Z,4.30
2017-11-10T06:42:32.224Z,4.30
2017-11-10T06:44:59.760Z,4.30
2017-11-10T06:47:27.643Z,4.30
2017-11-10T06:52:48.989Z,4.30
2017-11-10T06:55:16.528Z,4.30
2017-11-10T06:57:44.084Z,4.30
2017-11-10T07:00:11.613Z,4.30
2017-11-10T07:02:39.172Z,4.40
2017-11-10T07:05:06.707Z,4.40
2017-11-10T07:07:35.503Z,4.40
2017-11-10T07:10:03.053Z,4.40
2017-11-10T07:12:30.635Z,4.40
2017-11-10T07:14:58.172Z,4.40
2017-11-10T07:17:26.480Z,4.50
2017-11-10T07:19:54.037Z,4.40
2017-11-10T07:22:21.572Z,4.50
2017-11-10T07:24:49.151Z,4.40
2017-11-10T07:27:16.683Z,4.40
2017-11-10T07:29:44.239Z,4.40
2017-11-10T07:32:11.779Z,4.40
2017-11-10T07:34:39.339Z,4.40
2017-11-10T07:37:06.868Z,4.50
2017-11-10T07:39:35.201Z,4.50
2017-11-10T07:42:02.738Z,4.50
2017-11-10T07:44:30.291Z,4.40
2017-11-10T07:46:57.841Z,4.40
2017-11-10T07:49:25.410Z,4.40
2017-11-10T07:51:52.945Z,4.40
2017-11-10T07:54:21.272Z,4.40
2017-11-10T07:56:48.804Z,4.40
2017-11-10T07:59:16.372Z,4.40
2017-11-10T08:01:43.904Z,4.40
2017-11-10T08:04:12.239Z,4.40
2017-11-10T08:06:39.776Z,4.40
2017-11-10T08:09:07.341Z,4.40
2017-11-10T08:11:34.886Z,4.40
2017-11-10T08:14:02.447Z,4.40
2017-11-10T08:16:29.984Z,4.40
2017-11-10T08:18:58.301Z,4.40
2017-11-10T08:21:25.835Z,4.40
2017-11-10T08:23:53.392Z,4.50
2017-11-10T08:26:20.923Z,4.40
2017-11-10T08:28:48.485Z,4.50
2017-11-10T08:31:16.791Z,4.60
2017-11-10T08:33:44.356Z,4.60
2017-11-10T08:36:11.895Z,4.50
2017-11-10T08:38:40.219Z,4.50
2017-11-10T08:41:07.752Z,4.50
2017-11-10T08:43:35.313Z,4.50
2017-11-10T08:46:02.839Z,4.50
2017-11-10T08:48:31.168Z,4.50
2017-11-10T08:50:58.696Z,4.50
2017-11-10T08:53:26.256Z,4.50
2017-11-10T08:55:53.788Z,4.50
2017-11-10T08:58:21.347Z,4.50
2017-11-10T09:00:48.883Z,4.50
2017-11-10T09:03:16.440Z,4.50
2017-11-10T09:05:43.981Z,4.60
2017-11-10T09:08:11.545Z,4.50
2017-11-10T09:10:39.072Z,4.60
2017-11-10T09:13:06.641Z,4.60
2017-11-10T09:15:34.176Z,4.60
2017-11-10T09:18:02.500Z,4.60
2017-11-10T09:20:30.027Z,4.60
2017-11-10T09:22:57.563Z,4.70
2017-11-10T09:25:25.125Z,4.70
2017-11-10T09:31:15.234Z,4.70
2017-11-10T09:33:53.490Z,4.80
2017-11-10T09:39:27.636Z,4.80
2017-11-10T09:41:59.939Z,4.80
2017-11-10T09:44:33.122Z,4.80
2017-11-10T09:50:11.392Z,5.00
2017-11-10T09:52:44.719Z,4.90
2017-11-10T09:55:28.172Z,4.90
2017-11-10T09:58:01.424Z,5.00
2017-11-10T10:00:38.903Z,4.90
2017-11-10T10:03:19.918Z,5.00
2017-11-10T10:06:02.360Z,5.00
2017-11-10T10:08:35.564Z,5.00
2017-11-10T10:11:09.526Z,5.00
2017-11-10T10:13:42.864Z,5.00
2017-11-10T10:16:17.004Z,5.00
2017-11-10T10:18:48.192Z,5.00
2017-11-10T10:21:21.724Z,5.00
2017-11-10T10:23:49.256Z,5.10
2017-11-10T10:26:16.807Z,5.10
2017-11-10T10:28:44.339Z,5.10
2017-11-10T10:31:11.900Z,5.10
2017-11-10T10:33:39.434Z,5.10
2017-11-10T10:36:07.757Z,5.20
2017-11-10T10:38:35.291Z,5.10
2017-11-10T10:41:02.852Z,5.20
2017-11-10T10:43:30.386Z,5.20
2017-11-10T10:45:58.712Z,5.20
2017-11-10T10:48:26.249Z,5.20
2017-11-10T10:50:53.834Z,5.20
2017-11-10T10:53:21.363Z,5.20
2017-11-10T10:55:48.898Z,5.20
2017-11-10T10:58:17.226Z,5.20
2017-11-10T11:00:44.760Z,5.30
2017-11-10T11:03:12.320Z,5.20
2017-11-10T11:05:39.859Z,5.30
2017-11-10T11:08:08.191Z,5.30
2017-11-10T11:10:35.723Z,5.30
2017-11-10T11:13:03.328Z,5.40
2017-11-10T11:15:30.839Z,5.30
2017-11-10T11:17:58.404Z,5.30
2017-11-10T11:20:25.939Z,5.30
2017-11-10T11:22:54.271Z,5.20
2017-11-10T11:25:21.808Z,5.20
2017-11-10T11:27:49.360Z,5.20
2017-11-10T11:30:16.892Z,5.30
2017-11-10T11:32:45.226Z,5.30
2017-11-10T11:35:13.528Z,5.20
2017-11-10T11:37:41.090Z,5.20
2017-11-10T11:40:08.619Z,5.30
2017-11-10T11:42:36.183Z,5.30
2017-11-10T11:45:04.016Z,5.30
2017-11-10T11:47:31.582Z,5.30
2017-11-10T11:49:59.120Z,5.30
2017-11-10T11:52:27.440Z,5.40
2017-11-10T11:54:54.985Z,5.30
2017-11-10T11:57:22.537Z,5.30
2017-11-10T11:59:50.077Z,5.40
2017-11-10T12:02:18.401Z,5.50
2017-11-10T12:04:45.944Z,5.50
2017-11-10T12:07:13.505Z,5.60
2017-11-10T12:09:41.038Z,5.50
2017-11-10T12:12:08.613Z,5.50
2017-11-10T12:14:36.143Z,5.50
2017-11-10T12:17:04.471Z,5.60
2017-11-10T12:19:32.005Z,5.50
2017-11-10T12:21:59.565Z,5.60
2017-11-10T12:24:27.101Z,5.60
2017-11-10T12:26:55.399Z,5.60
2017-11-10T12:29:22.960Z,5.60
2017-11-10T12:31:50.493Z,5.70
2017-11-10T12:34:18.818Z,5.70
2017-11-10T12:36:46.353Z,5.60
2017-11-10T12:39:13.917Z,5.70
2017-11-10T12:41:41.452Z,5.70
2017-11-10T12:44:09.785Z,5.70
2017-11-10T12:46:37.316Z,5.70
2017-11-10T12:49:04.876Z,5.80
2017-11-10T12:51:32.412Z,5.80
2017-11-10T12:54:00.733Z,5.90
2017-11-10T12:56:28.555Z,5.90
2017-11-10T12:58:56.880Z,5.90
2017-11-10T13:01:24.410Z,5.90
2017-11-10T13:03:51.972Z,6.00
2017-11-10T13:06:19.503Z,6.00
2017-11-10T13:08:47.831Z,6.00
2017-11-10T13:11:15.374Z,6.00
2017-11-10T13:13:42.933Z,6.00
2017-11-10T13:16:10.471Z,6.00
2017-11-10T13:18:38.790Z,6.10
2017-11-10T13:21:06.329Z,6.10
2017-11-10T13:23:33.893Z,6.10
2017-11-10T13:26:01.420Z,6.20
2017-11-10T13:28:29.752Z,6.30
2017-11-10T13:30:57.284Z,6.20
2017-11-10T13:33:24.843Z,6.30
2017-11-10T13:35:52.372Z,6.30
2017-11-10T13:38:20.688Z,6.40
2017-11-10T13:40:48.221Z,6.40
2017-11-10T13:43:16.538Z,6.40
2017-11-10T13:45:44.087Z,6.40
2017-11-10T13:48:11.643Z,6.40
2017-11-10T13:50:39.172Z,6.40
2017-11-10T13:53:07.495Z,6.40
2017-11-10T13:55:35.028Z,6.40
2017-11-10T13:58:02.587Z,6.40
2017-11-10T14:00:30.124Z,6.40
2017-11-10T14:02:58.449Z,6.40
2017-11-10T14:05:25.976Z,6.40
2017-11-10T14:07:54.881Z,6.40
2017-11-10T14:10:22.417Z,6.50
2017-11-10T14:12:50.744Z,6.50
2017-11-10T14:15:41.760Z,6.50
2017-11-10T14:18:09.324Z,6.50
2017-11-10T14:20:36.849Z,6.50
2017-11-10T14:23:04.408Z,6.50
2017-11-10T14:25:31.935Z,6.50
2017-11-10T14:28:00.262Z,6.50
2017-11-10T14:30:27.792Z,6.50
2017-11-10T14:32:56.107Z,6.50
2017-11-10T14:35:23.636Z,6.50
2017-11-10T14:37:51.184Z,6.50
2017-11-10T14:40:19.468Z,6.60
2017-11-10T14:42:47.019Z,6.60
2017-11-10T14:45:14.556Z,6.60
2017-11-10T14:47:42.105Z,6.60
2017-11-10T14:50:09.640Z,6.60
2017-11-10T14:52:37.189Z,6.60
2017-11-10T14:55:04.741Z,6.70
2017-11-10T14:57:32.271Z,6.70
2017-11-10T15:00:00.591Z,6.70
2017-11-10T15:02:28.114Z,6.70
2017-11-10T15:04:56.429Z,6.70
2017-11-10T15:07:23.955Z,6.70
2017-11-10T15:09:52.281Z,6.70
2017-11-10T15:12:19.804Z,6.70
2017-11-10T15:14:47.357Z,6.70
2017-11-10T15:17:14.883Z,6.70
2017-11-10T15:19:43.219Z,6.80
2017-11-10T15:22:10.744Z,6.80
2017-11-10T15:24:39.060Z,6.70
2017-11-10T15:27:06.580Z,6.70
2017-11-10T15:29:34.906Z,6.80
2017-11-10T15:32:02.433Z,6.80
2017-11-10T15:34:29.979Z,6.80
2017-11-10T15:36:58.274Z,6.80
2017-11-10T15:39:25.827Z,6.80
2017-11-10T15:41:53.363Z,6.80
2017-11-10T15:44:21.683Z,6.80
2017-11-10T15:46:49.214Z,6.80
2017-11-10T15:49:16.769Z,6.90
2017-11-10T15:51:45.066Z,6.80
2017-11-10T15:54:12.616Z,6.80
2017-11-10T15:56:40.149Z,6.90
2017-11-10T15:59:08.477Z,6.90
2017-11-10T16:01:36.013Z,6.90
2017-11-10T16:04:03.565Z,6.90
2017-11-10T16:06:31.091Z,6.90
2017-11-10T16:08:58.647Z,6.90
2017-11-10T16:11:26.176Z,7.00
2017-11-10T16:13:53.731Z,7.00
2017-11-10T16:16:21.260Z,7.00
2017-11-10T16:18:48.820Z,7.00
2017-11-10T16:21:16.356Z,7.10
2017-11-10T16:23:43.905Z,7.10
2017-11-10T16:26:11.436Z,7.10
2017-11-10T16:28:38.988Z,7.10
2017-11-10T16:31:06.516Z,7.20
2017-11-10T16:33:34.827Z,7.20
2017-11-10T16:36:02.381Z,7.20
2017-11-10T16:38:29.940Z,7.20
2017-11-10T16:40:57.468Z,7.30
2017-11-10T16:43:25.791Z,7.30
2017-11-10T16:45:53.325Z,7.30
2017-11-10T16:48:20.885Z,7.40
2017-11-10T16:50:48.420Z,7.40
2017-11-10T16:53:16.741Z,7.40
2017-11-10T16:55:44.269Z,7.40
2017-11-10T16:58:12.593Z,7.40
2017-11-10T17:00:40.128Z,7.40
2017-11-10T17:03:07.652Z,7.50
2017-11-10T17:05:35.983Z,7.50
2017-11-10T17:08:03.516Z,7.50
2017-11-10T17:10:31.080Z,7.50
2017-11-10T17:12:58.609Z,7.50
2017-11-10T17:15:26.929Z,7.60
2017-11-10T17:17:54.453Z,7.50
2017-11-10T17:20:22.770Z,7.60
2017-11-10T17:22:50.300Z,7.60
2017-11-10T17:25:17.863Z,7.60
2017-11-10T17:27:45.392Z,7.70
2017-11-10T17:30:12.942Z,7.70
2017-11-10T17:32:40.516Z,7.80
2017-11-10T17:35:08.039Z,7.80
2017-11-10T17:37:35.573Z,7.80
2017-11-10T17:40:03.125Z,7.80
2017-11-10T17:42:30.652Z,7.80
2017-11-10T17:44:58.981Z,7.90
2017-11-10T17:47:26.523Z,7.80
2017-11-10T17:49:54.080Z,7.90
2017-11-10T17:52:21.607Z,7.80
2017-11-10T17:54:49.159Z,7.90
2017-11-10T17:57:16.679Z,7.90
2017-11-10T17:59:44.241Z,8.00
2017-11-10T18:02:11.768Z,8.10
2017-11-10T18:04:39.319Z,8.00
2017-11-10T18:07:07.617Z,7.90
2017-11-10T18:09:35.171Z,7.90
2017-11-10T18:12:02.705Z,7.90
2017-11-10T18:14:31.036Z,7.90
2017-11-10T18:16:58.564Z,7.90
2017-11-10T18:19:26.111Z,7.90
2017-11-10T18:21:54.400Z,7.80
2017-11-10T18:24:21.955Z,7.80
2017-11-10T18:26:49.523Z,7.80
2017-11-10T18:29:17.198Z,7.70
2017-11-10T18:31:44.722Z,7.70
2017-11-10T18:34:13.054Z,7.70
2017-11-10T18:36:40.621Z,7.70
2017-11-10T18:39:08.148Z,7.60
2017-11-10T18:41:35.707Z,7.50
2017-11-10T18:44:03.240Z,7.40
2017-11-10T18:46:31.563Z,7.50
2017-11-10T18:49:04.752Z,7.40
2017-11-10T18:51:32.304Z,7.40
2017-11-10T18:53:59.846Z,7.40
2017-11-10T18:56:27.407Z,7.40
2017-11-10T18:58:54.935Z,7.40
2017-11-10T19:01:22.488Z,7.30
2017-11-10T19:03:50.028Z,7.30
2017-11-10T19:06:17.588Z,7.30
2017-11-10T19:08:45.114Z,7.30
2017-11-10T19:11:12.676Z,7.30
2017-11-10T19:13:40.220Z,7.30
2017-11-10T19:16:07.791Z,7.20
2017-11-10T19:18:35.324Z,7.20
2017-11-10T19:21:03.654Z,7.20
2017-11-10T19:23:31.202Z,7.20
2017-11-10T19:25:58.849Z,7.20
2017-11-10T19:28:26.384Z,7.30
2017-11-10T19:30:54.675Z,7.30
2017-11-10T19:33:22.255Z,7.30
2017-11-10T19:35:49.783Z,7.20
2017-11-10T19:38:18.097Z,7.20
2017-11-10T19:40:45.636Z,7.10
2017-11-10T19:43:13.183Z,7.10
2017-11-10T19:45:40.728Z,7.00
2017-11-10T19:48:08.288Z,6.90
2017-11-10T19:50:35.816Z,6.90
2017-11-10T19:53:03.368Z,6.90
2017-11-10T19:55:30.900Z,6.90
2017-11-10T19:57:58.467Z,6.80
2017-11-10T20:00:25.995Z,6.80
2017-11-10T20:02:54.327Z,6.80
2017-11-10T20:05:21.860Z,6.70
2017-11-10T20:07:49.412Z,6.70
2017-11-10T20:10:16.951Z,6.70
2017-11-10T20:12:45.271Z,6.70
2017-11-10T20:15:12.800Z,6.60
2017-11-10T20:17:40.355Z,6.70
2017-11-10T20:20:07.900Z,6.60
2017-11-10T20:22:36.222Z,6.70
2017-11-10T20:25:17.812Z,6.70
2017-11-10T20:27:45.367Z,6.70
2017-11-10T20:30:12.905Z,6.70
2017-11-10T20:32:40.440Z,6.60
2017-11-10T20:35:08.006Z,6.60
2017-11-10T20:37:36.311Z,6.40
2017-11-10T20:40:03.888Z,6.50
2017-11-10T20:42:31.424Z,6.50
2017-11-10T20:44:59.004Z,6.40
2017-11-10T20:47:26.541Z,6.40
2017-11-10T20:49:54.333Z,6.30
2017-11-10T20:52:22.695Z,6.30
2017-11-10T20:54:57.102Z,6.20
2017-11-10T20:57:24.631Z,6.20
2017-11-10T20:59:52.183Z,6.20
2017-11-10T21:02:19.783Z,6.10
2017-11-10T21:04:48.102Z,6.00
2017-11-10T21:07:15.636Z,6.00
2017-11-10T21:09:43.643Z,6.00
2017-11-10T21:12:11.983Z,6.00
2017-11-10T21:14:39.550Z,6.00
2017-11-10T21:17:07.117Z,6.00
2017-11-10T21:19:34.714Z,6.10
2017-11-10T21:22:02.244Z,6.10
2017-11-10T21:24:29.801Z,6.00
2017-11-10T21:26:57.324Z,6.00
2017-11-10T21:29:25.651Z,6.00
2017-11-10T21:31:53.178Z,6.00
2017-11-10T21:34:20.733Z,6.00
2017-11-10T21:36:48.266Z,5.90
2017-11-10T21:39:16.562Z,5.80
2017-11-10T21:41:44.123Z,5.80
2017-11-10T21:44:11.690Z,5.80
2017-11-10T21:46:40.108Z,5.80
2017-11-10T21:49:07.652Z,5.80
2017-11-10T21:51:35.216Z,5.80
2017-11-10T21:54:02.750Z,5.70
2017-11-10T21:56:30.323Z,5.70
2017-11-10T21:58:57.857Z,5.80
2017-11-10T22:01:25.424Z,5.80
2017-11-10T22:03:52.964Z,5.90
2017-11-10T22:06:21.292Z,5.60
2017-11-10T22:08:48.812Z,5.60
2017-11-10T22:11:17.137Z,5.60
2017-11-10T22:13:44.663Z,5.60
2017-11-10T22:16:12.212Z,5.60
2017-11-10T22:18:40.503Z,5.50
2017-11-10T22:21:08.058Z,5.50
2017-11-10T22:23:35.590Z,5.60
2017-11-10T22:26:03.191Z,5.60
2017-11-10T22:28:30.720Z,5.60
2017-11-10T22:51:41.076Z,4.80
2017-11-10T22:54:08.600Z,4.80
2017-11-10T22:56:36.159Z,4.80
2017-11-10T22:59:03.701Z,4.90
2017-11-10T23:01:32.043Z,4.90
2017-11-10T23:03:59.573Z,4.80
2017-11-10T23:06:27.124Z,4.90
2017-11-10T23:08:54.652Z,4.90
2017-11-10T23:11:22.988Z,4.90
2017-11-10T23:13:50.512Z,4.90
2017-11-10T23:16:18.069Z,4.90
2017-11-10T23:18:45.600Z,4.80
2017-11-10T23:21:13.159Z,4.80
2017-11-10T23:23:40.685Z,4.70
2017-11-10T23:26:08.245Z,4.60
2017-11-10T23:28:35.769Z,4.60
2017-11-10T23:31:03.327Z,4.50
2017-11-10T23:33:30.857Z,4.60
2017-11-10T23:35:59.192Z,4.50
2017-11-10T23:38:26.724Z,4.50
2017-11-10T23:40:54.280Z,4.50
2017-11-10T23:43:21.820Z,4.60
2017-11-10T23:46:13.301Z,4.50
2017-11-10T23:48:40.831Z,4.50
2017-11-10T23:51:08.392Z,4.60
2017-11-10T23:53:35.929Z,4.50
2017-11-10T23:56:04.244Z,4.50
2017-11-10T23:58:31.775Z,4.50
